createdAt,value
2022-08-10T00:01:08.247Z,12.50
2022-08-10T00:06:06.394Z,11.78
2022-08-10T00:11:16.666Z,12.50
2022-08-10T00:16:06.036Z,12.00
2022-08-10T00:21:06.148Z,12.44
2022-08-10T00:26:03.271Z,12.66
2022-08-10T00:31:03.591Z,12.44
2022-08-10T00:36:01.933Z,12.44
2022-08-10T00:41:01.049Z,12.00
2022-08-10T00:46:00.614Z,12.22
2022-08-10T00:50:59.553Z,11.91
2022-08-10T00:57:12.912Z,11.91
2022-08-10T01:00:58.098Z,12.44
2022-08-10T01:05:58.256Z,11.91
2022-08-10T01:10:57.401Z,11.91
2022-08-10T01:15:55.804Z,12.66
2022-08-10T01:20:54.939Z,11.91
2022-08-10T01:26:11.946Z,12.44
2022-08-10T01:30:53.315Z,12.12
2022-08-10T01:35:52.443Z,11.70
2022-08-10T01:40:51.792Z,12.00
2022-08-10T01:45:52.919Z,11.49
2022-08-10T01:50:53.430Z,11.91
2022-08-10T01:55:49.449Z,11.70
2022-08-10T02:00:49.598Z,11.91
2022-08-10T02:05:47.894Z,11.70
2022-08-10T02:10:47.262Z,11.70
2022-08-10T02:16:02.172Z,11.70
2022-08-10T02:20:45.590Z,11.37
2022-08-10T02:25:44.976Z,12.12
2022-08-10T02:30:44.087Z,12.33
2022-08-10T02:35:54.637Z,12.33
2022-08-10T02:42:18.794Z,12.53
2022-08-10T02:45:41.768Z,12.53
2022-08-10T02:50:41.068Z,12.53
2022-08-10T02:55:40.402Z,12.33
2022-08-10T03:00:40.756Z,12.12
2022-08-10T03:05:39.892Z,11.57
2022-08-10T03:10:41.315Z,11.57
2022-08-10T03:15:37.426Z,12.12
2022-08-10T03:20:39.693Z,11.57
2022-08-10T03:25:36.035Z,12.12
2022-08-10T03:30:36.383Z,11.16
2022-08-10T03:35:35.501Z,11.16
2022-08-10T03:40:45.205Z,11.57
2022-08-10T03:45:54.228Z,11.16
2022-08-10T03:50:51.250Z,11.57
2022-08-10T03:56:28.053Z,11.37
2022-08-10T04:00:32.660Z,11.16
2022-08-10T04:05:38.822Z,11.57
2022-08-10T04:10:30.019Z,11.57
2022-08-10T04:15:30.371Z,11.16
2022-08-10T04:20:34.591Z,11.37
2022-08-10T04:25:26.884Z,11.16
2022-08-10T04:30:28.034Z,11.16
2022-08-10T04:35:25.283Z,11.16
2022-08-10T04:40:29.235Z,11.37
2022-08-10T04:45:23.774Z,10.95
2022-08-10T04:50:23.938Z,11.57
2022-08-10T04:55:22.087Z,11.57
2022-08-10T05:00:22.284Z,11.16
2022-08-10T05:05:22.438Z,10.95
2022-08-10T05:10:19.766Z,11.37
2022-08-10T05:15:19.070Z,11.37
2022-08-10T05:20:18.410Z,12.12
2022-08-10T05:25:17.711Z,12.33
2022-08-10T05:30:18.008Z,12.12
2022-08-10T05:35:16.300Z,12.12
2022-08-10T05:40:15.601Z,11.49
2022-08-10T05:45:14.914Z,11.27
2022-08-10T05:50:15.252Z,12.00
2022-08-10T05:55:13.591Z,11.55
2022-08-10T06:00:37.366Z,11.78
2022-08-10T06:05:13.036Z,12.00
2022-08-10T06:10:10.669Z,12.22
2022-08-10T06:15:21.599Z,11.79
2022-08-10T06:20:10.839Z,11.32
2022-08-10T06:26:08.192Z,12.27
2022-08-10T06:30:20.222Z,12.27
2022-08-10T06:35:08.339Z,11.79
2022-08-10T06:40:06.726Z,11.79
2022-08-10T06:45:05.834Z,11.79
2022-08-10T06:50:08.811Z,11.55
2022-08-10T06:55:05.257Z,11.55
2022-08-10T07:00:03.594Z,12.25
2022-08-10T07:05:02.888Z,12.00
2022-08-10T07:10:02.179Z,12.00
2022-08-10T07:15:02.486Z,11.74
2022-08-10T07:20:00.822Z,11.74
2022-08-10T07:25:00.126Z,12.68
2022-08-10T07:29:59.431Z,11.74
2022-08-10T07:34:58.764Z,12.68
2022-08-10T07:40:04.356Z,12.42
2022-08-10T07:44:58.046Z,12.15
2022-08-10T07:49:57.341Z,11.88
2022-08-10T07:54:57.654Z,11.88
2022-08-10T07:59:54.971Z,11.61
2022-08-10T08:04:53.139Z,11.33
2022-08-10T08:09:57.735Z,12.26
2022-08-10T08:14:52.454Z,11.98
2022-08-10T08:19:55.575Z,12.54
2022-08-10T08:24:52.629Z,12.54
2022-08-10T08:29:50.275Z,12.26
2022-08-10T08:34:51.461Z,11.61
2022-08-10T08:39:48.783Z,12.54
2022-08-10T08:44:47.967Z,12.54
2022-08-10T08:50:08.713Z,12.26
2022-08-10T08:54:46.451Z,12.26
2022-08-10T08:59:46.771Z,12.26
2022-08-10T09:04:46.056Z,12.26
2022-08-10T09:09:45.361Z,11.98
2022-08-10T09:14:43.657Z,13.19
2022-08-10T09:19:42.953Z,12.61
2022-08-10T09:24:42.249Z,12.61
2022-08-10T09:29:41.549Z,12.61
2022-08-10T09:36:22.447Z,12.61
2022-08-10T09:40:56.112Z,12.61
2022-08-10T09:44:57.865Z,12.32
2022-08-10T09:49:54.463Z,12.01
2022-08-10T09:54:38.553Z,12.01
2022-08-10T10:00:00.377Z,12.01
2022-08-10T10:04:36.007Z,11.71
2022-08-10T10:09:35.312Z,11.40
2022-08-10T10:14:34.621Z,12.31
2022-08-10T10:19:40.361Z,12.31
2022-08-10T10:24:34.143Z,11.99
2022-08-10T10:29:57.512Z,11.99
2022-08-10T10:34:31.545Z,12.31
2022-08-10T10:39:34.817Z,12.31
2022-08-10T10:44:30.792Z,11.99
2022-08-10T10:49:29.048Z,11.99
2022-08-10T10:54:28.323Z,11.99
2022-08-10T10:59:55.284Z,11.99
2022-08-10T11:04:26.854Z,11.66
2022-08-10T11:10:05.528Z,11.66
2022-08-10T11:14:29.255Z,11.66
2022-08-10T11:19:24.585Z,11.66
2022-08-10T11:24:48.884Z,12.90
2022-08-10T11:29:22.929Z,12.57
2022-08-10T11:34:48.277Z,12.57
2022-08-10T11:39:21.393Z,12.57
2022-08-10T11:44:21.549Z,12.57
2022-08-10T11:49:19.820Z,12.57
2022-08-10T11:54:19.111Z,12.57
2022-08-10T11:59:18.458Z,12.57
2022-08-10T12:04:17.541Z,12.57
2022-08-10T12:10:06.635Z,12.24
2022-08-10T12:14:23.967Z,12.57
2022-08-10T12:19:15.129Z,12.24
2022-08-10T12:24:15.457Z,12.24
2022-08-10T12:29:14.780Z,12.24
2022-08-10T12:34:14.085Z,12.24
2022-08-10T12:39:13.527Z,11.90
2022-08-10T12:44:12.731Z,12.24
2022-08-10T12:49:10.899Z,11.90
2022-08-10T12:54:10.026Z,12.80
2022-08-10T12:59:10.336Z,12.80
2022-08-10T13:04:20.533Z,12.80
2022-08-10T13:09:06.849Z,12.80
2022-08-10T13:14:07.154Z,12.80
2022-08-10T13:19:06.468Z,12.45
2022-08-10T13:24:05.813Z,12.09
2022-08-10T13:29:12.959Z,12.09
2022-08-10T13:34:42.707Z,12.09
2022-08-10T13:39:04.636Z,12.45
2022-08-10T13:44:02.748Z,12.45
2022-08-10T13:49:01.877Z,12.09
2022-08-10T13:54:03.228Z,12.09
2022-08-10T13:59:00.533Z,12.09
2022-08-10T14:03:59.834Z,12.09
2022-08-10T14:08:59.136Z,12.09
2022-08-10T14:13:58.475Z,11.35
2022-08-10T14:18:58.601Z,11.73
2022-08-10T14:23:58.926Z,11.73
2022-08-10T14:28:57.213Z,12.09
2022-08-10T14:33:55.499Z,11.73
2022-08-10T14:38:54.810Z,11.35
2022-08-10T14:43:53.114Z,11.73
2022-08-10T14:48:53.437Z,11.35
2022-08-10T14:53:54.150Z,10.97
2022-08-10T14:59:06.243Z,11.86
2022-08-10T15:03:59.122Z,11.86
2022-08-10T15:08:51.528Z,11.47
2022-08-10T15:14:41.890Z,11.86
2022-08-10T15:18:58.234Z,11.47
2022-08-10T15:24:05.670Z,11.86
2022-08-10T15:29:22.676Z,11.06
2022-08-10T15:33:57.580Z,11.47
2022-08-10T15:38:46.743Z,11.86
2022-08-10T15:43:46.866Z,11.47
2022-08-10T15:48:44.179Z,11.47
2022-08-10T15:53:49.056Z,11.47
2022-08-10T15:58:42.565Z,11.47
2022-08-10T16:03:41.891Z,11.06
2022-08-10T16:08:55.893Z,11.47
2022-08-10T16:13:51.015Z,11.47
2022-08-10T16:18:39.544Z,11.86
2022-08-10T16:23:38.669Z,11.47
2022-08-10T16:28:37.995Z,11.47
2022-08-10T16:33:53.906Z,11.06
2022-08-10T16:38:36.500Z,11.06
2022-08-10T16:43:36.820Z,11.47
2022-08-10T16:48:50.158Z,11.06
2022-08-10T16:53:34.123Z,11.06
2022-08-10T16:58:34.443Z,10.65
2022-08-10T17:04:08.423Z,11.47
2022-08-10T17:08:32.953Z,11.06
2022-08-10T17:13:33.128Z,11.47
2022-08-10T17:18:31.270Z,11.86
2022-08-10T17:23:29.635Z,11.47
2022-08-10T17:28:34.761Z,11.47
2022-08-10T17:33:27.978Z,11.86
2022-08-10T17:38:28.074Z,11.86
2022-08-10T17:43:46.455Z,11.86
2022-08-10T17:48:27.469Z,12.25
2022-08-10T17:53:24.777Z,11.86
2022-08-10T17:58:25.093Z,12.62
2022-08-10T18:03:25.800Z,12.25
2022-08-10T18:08:22.793Z,11.86
2022-08-10T18:13:22.947Z,11.35
2022-08-10T18:18:21.289Z,11.73
2022-08-10T18:23:21.391Z,12.09
2022-08-10T18:28:19.735Z,11.19
2022-08-10T18:33:20.862Z,11.55
2022-08-10T18:38:18.214Z,11.55
2022-08-10T18:44:04.755Z,10.65
2022-08-10T18:48:18.622Z,10.99
2022-08-10T18:53:17.760Z,10.99
2022-08-10T18:58:15.074Z,11.33
2022-08-10T19:03:14.218Z,10.99
2022-08-10T19:08:13.382Z,11.33
2022-08-10T19:13:14.658Z,11.33
2022-08-10T19:18:13.770Z,11.33
2022-08-10T19:23:14.134Z,10.99
2022-08-10T19:28:11.402Z,10.65
2022-08-10T19:33:10.620Z,10.42
2022-08-10T19:38:08.749Z,10.75
2022-08-10T19:43:08.999Z,11.40
2022-08-10T19:48:08.235Z,12.01
2022-08-10T19:53:06.415Z,11.39
2022-08-10T19:58:05.826Z,11.39
2022-08-10T20:03:08.121Z,11.69
2022-08-10T20:08:05.084Z,11.69
2022-08-10T20:13:03.422Z,11.98
2022-08-10T20:18:02.752Z,11.05
2022-08-10T20:23:03.066Z,11.98
2022-08-10T20:28:01.971Z,11.33
2022-08-10T20:33:01.477Z,11.33
2022-08-10T20:38:03.416Z,11.61
2022-08-10T20:42:58.898Z,11.61
2022-08-10T20:47:58.155Z,12.42
2022-08-10T20:52:58.458Z,12.68
2022-08-10T20:57:57.700Z,12.68
2022-08-10T21:02:58.149Z,12.68
2022-08-10T21:08:03.565Z,12.68
2022-08-10T21:12:55.578Z,12.94
2022-08-10T21:17:53.979Z,11.88
2022-08-10T21:22:53.160Z,11.74
2022-08-10T21:27:55.421Z,11.74
2022-08-10T21:32:51.495Z,11.74
2022-08-10T21:37:56.457Z,12.00
2022-08-10T21:42:50.853Z,12.00
2022-08-10T21:48:16.881Z,12.25
2022-08-10T21:52:53.478Z,12.49
2022-08-10T21:57:47.556Z,12.25
2022-08-10T22:02:49.756Z,12.49
2022-08-10T22:07:46.825Z,11.06
2022-08-10T22:12:46.802Z,11.74
2022-08-10T22:18:03.417Z,11.48
2022-08-10T22:22:44.249Z,12.25
2022-08-10T22:27:46.294Z,12.62
2022-08-10T22:32:42.705Z,13.22
2022-08-10T22:37:43.131Z,13.22
2022-08-10T22:42:58.876Z,13.22
2022-08-10T22:47:41.556Z,13.22
2022-08-10T22:53:02.067Z,13.22
2022-08-10T22:57:37.990Z,12.62
2022-08-10T23:02:37.438Z,13.22
2022-08-10T23:07:37.497Z,13.22
2022-08-10T23:12:34.757Z,12.93
2022-08-10T23:18:01.614Z,12.62
2022-08-10T23:22:35.181Z,12.31
2022-08-10T23:27:38.836Z,12.31
2022-08-10T23:32:32.823Z,12.31
2022-08-10T23:37:33.118Z,12.26
2022-08-10T23:42:31.395Z,12.25
2022-08-10T23:47:32.696Z,11.79
2022-08-10T23:52:31.974Z,12.03
2022-08-10T23:57:30.267Z,12.27
